createdAt,value
2019-03-31T00:03:59.040Z,25.93
2019-03-31T00:09:06.861Z,23.67
2019-03-31T00:14:13.069Z,24.93
2019-03-31T00:19:19.340Z,24.77
2019-03-31T00:24:25.583Z,21.40
2019-03-31T00:29:31.818Z,26.70
2019-03-31T00:34:38.019Z,25.53
2019-03-31T00:39:44.020Z,30.30
2019-03-31T00:44:50.100Z,25.57
2019-03-31T00:49:56.400Z,23.43
2019-03-31T00:55:02.480Z,46.63
2019-03-31T01:00:11.040Z,37.20
2019-03-31T01:05:17.599Z,33.33
2019-03-31T01:10:24.020Z,30.33
2019-03-31T01:15:30.843Z,27.53
2019-03-31T01:20:37.232Z,30.90
2019-03-31T01:25:43.461Z,31.87
2019-03-31T01:30:49.939Z,36.37
2019-03-31T01:35:56.002Z,31.07
2019-03-31T01:41:02.141Z,29.60
2019-03-31T01:46:09.900Z,34.03
2019-03-31T01:51:16.137Z,30.73
2019-03-31T01:56:23.159Z,32.40
2019-03-31T02:01:29.210Z,28.00
2019-03-31T02:06:35.566Z,23.70
2019-03-31T02:11:41.658Z,24.67
2019-03-31T02:16:47.770Z,22.63
2019-03-31T02:21:53.774Z,23.97
2019-03-31T02:27:00.201Z,28.27
2019-03-31T02:32:22.612Z,23.70
2019-03-31T02:37:14.127Z,18.83
2019-03-31T02:42:20.168Z,21.20
2019-03-31T02:47:26.256Z,24.77
2019-03-31T02:52:32.260Z,24.63
2019-03-31T02:57:39.856Z,20.82
2019-03-31T03:02:47.451Z,18.50
2019-03-31T03:07:54.478Z,22.83
2019-03-31T03:13:03.430Z,22.03
2019-03-31T03:18:09.595Z,23.10
2019-03-31T03:23:15.729Z,22.43
2019-03-31T03:28:21.778Z,20.83
2019-03-31T03:33:27.810Z,25.43
2019-03-31T03:38:33.896Z,30.43
2019-03-31T03:43:54.290Z,28.02
2019-03-31T03:48:47.879Z,29.70
2019-03-31T03:53:53.930Z,38.27
2019-03-31T03:58:59.816Z,28.77
2019-03-31T04:04:05.813Z,31.63
2019-03-31T04:09:11.887Z,35.20
2019-03-31T04:14:17.999Z,32.77
2019-03-31T04:19:23.987Z,33.37
2019-03-31T04:24:30.039Z,37.97
2019-03-31T04:29:36.116Z,39.38
2019-03-31T04:34:42.138Z,38.23
2019-03-31T04:39:48.128Z,34.57
2019-03-31T04:44:54.209Z,33.73
2019-03-31T04:50:00.378Z,31.07
2019-03-31T04:55:06.677Z,28.30
2019-03-31T05:00:12.686Z,25.23
2019-03-31T05:05:18.731Z,30.73
2019-03-31T05:10:24.824Z,31.97
2019-03-31T05:15:30.922Z,30.95
2019-03-31T05:20:36.894Z,36.23
2019-03-31T05:25:42.942Z,31.00
2019-03-31T05:30:48.907Z,30.57
2019-03-31T05:35:55.032Z,29.60
2019-03-31T05:41:01.302Z,36.37
2019-03-31T05:46:07.307Z,39.47
2019-03-31T05:51:13.262Z,39.80
2019-03-31T05:56:20.026Z,39.23
2019-03-31T06:01:26.163Z,41.97
2019-03-31T06:06:32.266Z,49.43
2019-03-31T06:11:38.168Z,46.73
2019-03-31T06:16:44.228Z,47.77
2019-03-31T06:21:50.322Z,44.97
2019-03-31T06:26:56.492Z,53.63
2019-03-31T06:32:02.493Z,57.03
2019-03-31T06:37:08.542Z,53.40
2019-03-31T06:42:14.653Z,52.73
2019-03-31T06:47:20.623Z,48.93
2019-03-31T06:52:26.887Z,56.47
2019-03-31T06:57:32.852Z,50.33
2019-03-31T07:02:38.829Z,37.80
2019-03-31T07:07:44.882Z,37.83
2019-03-31T07:12:50.892Z,41.90
2019-03-31T07:17:56.921Z,40.60
2019-03-31T07:23:02.937Z,39.03
2019-03-31T07:28:09.171Z,41.80
2019-03-31T07:33:15.146Z,44.77
2019-03-31T07:38:21.291Z,48.23
2019-03-31T07:43:27.441Z,41.03
2019-03-31T07:48:33.526Z,40.50
2019-03-31T07:53:39.506Z,46.10
2019-03-31T07:58:45.705Z,44.47
2019-03-31T08:03:51.821Z,45.38
2019-03-31T08:08:58.206Z,43.52
2019-03-31T08:14:04.648Z,43.40
2019-03-31T08:19:10.706Z,54.10
2019-03-31T08:24:16.631Z,52.67
2019-03-31T08:29:22.627Z,54.58
2019-03-31T08:34:28.859Z,50.47
2019-03-31T08:39:34.982Z,53.73
2019-03-31T08:44:41.007Z,54.93
2019-03-31T08:49:46.955Z,56.03
2019-03-31T08:54:52.982Z,58.40
2019-03-31T08:59:58.976Z,56.70
2019-03-31T09:05:06.177Z,54.30
2019-03-31T09:10:12.554Z,54.93
2019-03-31T09:15:18.565Z,61.23
2019-03-31T09:20:24.552Z,63.30
2019-03-31T09:25:30.521Z,56.00
2019-03-31T09:30:36.496Z,59.03
2019-03-31T09:35:42.572Z,53.52
2019-03-31T09:40:48.664Z,56.83
2019-03-31T09:45:54.567Z,56.70
2019-03-31T09:51:00.617Z,59.67
2019-03-31T09:56:06.681Z,59.93
2019-03-31T10:01:13.141Z,56.77
2019-03-31T10:06:29.538Z,64.23
2019-03-31T10:11:27.129Z,63.97
2019-03-31T10:16:33.191Z,65.10
2019-03-31T10:21:39.249Z,61.18
2019-03-31T10:26:45.252Z,62.00
2019-03-31T10:31:51.665Z,63.07
2019-03-31T10:36:57.687Z,64.17
2019-03-31T10:42:03.694Z,67.67
2019-03-31T10:47:09.747Z,68.87
2019-03-31T10:52:15.921Z,65.87
2019-03-31T10:57:22.046Z,65.37
2019-03-31T11:02:28.032Z,65.57
2019-03-31T11:07:34.076Z,63.38
2019-03-31T11:12:40.166Z,67.30
2019-03-31T11:17:46.106Z,63.10
2019-03-31T11:22:56.969Z,64.00
2019-03-31T11:28:03.101Z,67.73
2019-03-31T11:33:09.378Z,68.60
2019-03-31T11:38:16.337Z,72.53
2019-03-31T11:43:22.601Z,71.47
2019-03-31T11:48:29.269Z,73.53
2019-03-31T11:53:35.399Z,68.87
2019-03-31T11:58:41.600Z,78.50
2019-03-31T12:03:48.209Z,71.53
2019-03-31T12:08:54.332Z,69.53
2019-03-31T12:14:00.451Z,72.30
2019-03-31T12:19:06.660Z,84.60
2019-03-31T12:24:12.734Z,79.80
2019-03-31T12:29:19.199Z,92.20
2019-03-31T12:34:26.430Z,96.70
2019-03-31T12:39:33.017Z,99.95
2019-03-31T12:44:39.201Z,103.00
2019-03-31T12:49:45.400Z,103.03
2019-03-31T12:54:51.561Z,105.90
2019-03-31T12:59:57.615Z,108.83
2019-03-31T13:05:04.279Z,106.17
2019-03-31T13:10:10.620Z,105.37
2019-03-31T13:15:16.700Z,111.83
2019-03-31T13:20:23.221Z,123.20
2019-03-31T13:25:29.340Z,123.23
2019-03-31T13:30:35.382Z,118.17
2019-03-31T13:35:41.592Z,121.33
2019-03-31T13:40:50.459Z,123.07
2019-03-31T13:45:56.134Z,120.30
2019-03-31T13:51:02.353Z,117.43
2019-03-31T13:56:08.615Z,126.40
2019-03-31T14:01:14.802Z,125.00
2019-03-31T14:06:21.237Z,129.23
2019-03-31T14:11:27.243Z,127.67
2019-03-31T14:16:35.702Z,126.62
2019-03-31T14:21:41.953Z,118.17
2019-03-31T14:26:48.121Z,128.73
2019-03-31T14:31:54.658Z,128.10
2019-03-31T14:37:00.845Z,130.37
2019-03-31T14:42:07.142Z,128.27
2019-03-31T14:47:13.702Z,125.00
2019-03-31T14:52:27.260Z,128.03
2019-03-31T14:57:27.823Z,125.43
2019-03-31T15:02:33.961Z,124.00
2019-03-31T15:07:40.081Z,117.87
2019-03-31T15:12:46.442Z,110.20
2019-03-31T15:17:52.622Z,113.43
2019-03-31T15:22:59.181Z,110.97
2019-03-31T15:28:05.751Z,104.53
2019-03-31T15:33:11.881Z,107.70
2019-03-31T15:38:17.972Z,111.57
2019-03-31T15:43:24.042Z,96.00
2019-03-31T15:48:30.220Z,95.60
2019-03-31T15:53:36.454Z,94.37
2019-03-31T15:58:42.585Z,90.03
2019-03-31T16:03:48.861Z,99.80
2019-03-31T16:08:54.361Z,90.50
2019-03-31T16:14:00.281Z,89.53
2019-03-31T16:19:05.958Z,84.23
2019-03-31T16:24:11.661Z,88.10
2019-03-31T16:29:17.401Z,83.67
2019-03-31T16:34:22.900Z,86.17
2019-03-31T16:39:37.535Z,78.70
2019-03-31T16:44:35.732Z,87.33
2019-03-31T16:49:41.313Z,80.53
2019-03-31T16:54:46.945Z,75.63
2019-03-31T16:59:52.551Z,76.17
2019-03-31T17:04:58.186Z,71.97
2019-03-31T17:10:04.005Z,76.23
2019-03-31T17:15:09.986Z,67.50
2019-03-31T17:20:17.813Z,69.77
2019-03-31T17:25:23.246Z,74.07
2019-03-31T17:30:28.985Z,69.67
2019-03-31T17:35:34.461Z,66.87
2019-03-31T17:40:39.831Z,69.00
2019-03-31T17:45:47.982Z,66.20
2019-03-31T17:50:54.527Z,61.30
2019-03-31T17:56:00.549Z,64.40
2019-03-31T18:01:06.285Z,61.50
2019-03-31T18:06:12.927Z,60.23
2019-03-31T18:11:18.867Z,60.07
2019-03-31T18:16:25.307Z,56.85
2019-03-31T18:21:30.986Z,56.50
2019-03-31T18:26:36.801Z,56.13
2019-03-31T18:31:42.347Z,55.10
2019-03-31T18:36:47.870Z,55.90
2019-03-31T18:41:53.586Z,62.07
2019-03-31T18:46:59.148Z,61.47
2019-03-31T18:52:04.626Z,55.03
2019-03-31T18:57:18.098Z,56.70
2019-03-31T19:02:32.006Z,56.23
2019-03-31T19:07:47.249Z,63.10
2019-03-31T19:13:06.352Z,54.43
2019-03-31T19:18:20.208Z,50.43
2019-03-31T19:23:34.089Z,52.80
2019-03-31T19:28:54.681Z,56.83
2019-03-31T19:34:07.987Z,47.70
2019-03-31T19:39:24.507Z,50.37
2019-03-31T19:44:48.829Z,49.57
2019-03-31T19:50:03.267Z,55.40
2019-03-31T19:55:17.687Z,49.33
2019-03-31T20:00:33.459Z,50.87
2019-03-31T20:05:48.586Z,52.90
2019-03-31T20:11:01.967Z,51.60
2019-03-31T20:16:26.366Z,53.07
2019-03-31T20:21:47.227Z,44.63
2019-03-31T20:26:59.552Z,45.73
2019-03-31T20:32:15.877Z,48.57
2019-03-31T20:37:40.249Z,40.80
2019-03-31T20:43:03.065Z,47.57
2019-03-31T20:48:08.546Z,44.67
2019-03-31T20:53:14.149Z,49.20
2019-03-31T20:58:19.888Z,48.53
2019-03-31T21:03:26.199Z,52.43
2019-03-31T21:08:31.686Z,54.03
2019-03-31T21:13:37.472Z,60.17
2019-03-31T21:18:43.287Z,52.10
2019-03-31T21:23:48.749Z,51.63
2019-03-31T21:28:54.346Z,58.70
2019-03-31T21:34:00.267Z,51.83
2019-03-31T21:39:08.169Z,51.33
2019-03-31T21:44:13.967Z,48.83
2019-03-31T21:49:19.467Z,48.67
2019-03-31T21:54:24.925Z,51.33
2019-03-31T21:59:33.372Z,47.43
2019-03-31T22:04:37.778Z,51.37
2019-03-31T22:09:43.397Z,50.27
2019-03-31T22:14:49.045Z,49.80
2019-03-31T22:19:54.638Z,42.83
2019-03-31T22:25:00.411Z,48.50
2019-03-31T22:30:06.769Z,42.60
2019-03-31T22:35:12.207Z,45.47
2019-03-31T22:40:17.770Z,40.73
2019-03-31T22:45:23.388Z,39.27
2019-03-31T22:50:28.868Z,40.97
2019-03-31T22:55:34.346Z,43.48
2019-03-31T23:00:40.014Z,38.43
2019-03-31T23:05:45.526Z,43.73
2019-03-31T23:10:51.481Z,38.83
2019-03-31T23:15:57.146Z,36.37
2019-03-31T23:21:02.626Z,35.03
2019-03-31T23:26:08.079Z,36.67
2019-03-31T23:31:13.679Z,31.77
2019-03-31T23:36:19.158Z,33.07
2019-03-31T23:41:25.193Z,31.90
2019-03-31T23:46:30.765Z,30.73
2019-03-31T23:51:36.188Z,28.80
2019-03-31T23:56:41.643Z,24.30
